createdAt,value
2018-05-03T00:01:12.114Z,60.00
2018-05-03T00:03:40.377Z,60.20
2018-05-03T00:06:08.608Z,60.30
2018-05-03T00:08:36.841Z,60.00
2018-05-03T00:11:05.094Z,60.50
2018-05-03T00:13:33.322Z,60.80
2018-05-03T00:16:01.549Z,60.80
2018-05-03T00:18:29.798Z,60.70
2018-05-03T00:20:58.041Z,60.30
2018-05-03T00:23:27.033Z,60.80
2018-05-03T00:25:56.030Z,60.60
2018-05-03T00:28:24.273Z,60.60
2018-05-03T00:30:52.506Z,61.80
2018-05-03T00:33:20.745Z,61.10
2018-05-03T00:35:49.743Z,61.70
2018-05-03T00:38:18.754Z,61.70
2018-05-03T00:40:47.021Z,61.70
2018-05-03T00:43:15.274Z,61.70
2018-05-03T00:45:43.502Z,61.90
2018-05-03T00:48:11.746Z,62.20
2018-05-03T00:50:40.757Z,61.90
2018-05-03T00:53:08.993Z,61.80
2018-05-03T00:55:38.413Z,61.40
2018-05-03T00:58:07.465Z,61.00
2018-05-03T01:00:35.700Z,60.90
2018-05-03T01:03:03.941Z,61.30
2018-05-03T01:05:32.974Z,62.10
2018-05-03T01:08:01.214Z,61.30
2018-05-03T01:10:30.321Z,61.70
2018-05-03T01:12:59.335Z,61.60
2018-05-03T01:15:27.585Z,61.60
2018-05-03T01:17:56.604Z,61.40
2018-05-03T01:20:24.841Z,61.40
2018-05-03T01:22:53.841Z,61.60
2018-05-03T01:25:22.857Z,61.50
2018-05-03T01:27:51.125Z,61.40
2018-05-03T01:30:19.371Z,61.70
2018-05-03T01:32:48.365Z,61.70
2018-05-03T01:35:34.254Z,61.60
2018-05-03T01:38:02.484Z,61.90
2018-05-03T01:40:30.717Z,61.50
2018-05-03T01:43:00.027Z,62.10
2018-05-03T01:45:29.021Z,61.70
2018-05-03T01:47:58.022Z,61.80
2018-05-03T01:50:26.278Z,61.80
2018-05-03T01:52:54.573Z,61.70
2018-05-03T01:55:22.807Z,61.60
2018-05-03T01:57:51.809Z,61.60
2018-05-03T02:00:20.217Z,61.70
2018-05-03T02:02:48.449Z,61.60
2018-05-03T02:05:16.682Z,61.40
2018-05-03T02:07:45.246Z,61.60
2018-05-03T02:10:14.254Z,61.90
2018-05-03T02:12:42.502Z,61.90
2018-05-03T02:15:11.526Z,61.80
2018-05-03T02:17:39.754Z,61.70
2018-05-03T02:20:08.004Z,61.80
2018-05-03T02:22:36.229Z,61.80
2018-05-03T02:25:05.241Z,61.60
2018-05-03T02:27:33.472Z,61.60
2018-05-03T02:30:01.712Z,61.80
2018-05-03T02:32:29.962Z,61.50
2018-05-03T02:34:58.209Z,61.60
2018-05-03T02:37:26.452Z,61.90
2018-05-03T02:39:54.681Z,62.00
2018-05-03T02:42:23.690Z,61.70
2018-05-03T02:44:51.954Z,61.60
2018-05-03T02:47:20.957Z,61.80
2018-05-03T02:49:49.201Z,61.80
2018-05-03T02:52:17.436Z,61.90
2018-05-03T02:54:45.661Z,61.90
2018-05-03T02:57:32.330Z,61.60
2018-05-03T03:00:24.106Z,61.60
2018-05-03T03:03:16.047Z,61.70
2018-05-03T03:06:07.618Z,62.00
2018-05-03T03:16:04.614Z,61.60
2018-05-03T03:18:56.077Z,61.50
2018-05-03T03:21:47.905Z,61.50
2018-05-03T03:24:38.961Z,62.20
2018-05-03T03:27:30.662Z,61.60
2018-05-03T03:30:16.761Z,61.80
2018-05-03T03:33:02.848Z,61.60
2018-05-03T03:36:06.782Z,61.70
2018-05-03T03:38:52.973Z,61.80
2018-05-03T03:41:37.103Z,61.10
2018-05-03T03:44:23.211Z,60.80
2018-05-03T03:46:51.450Z,60.90
2018-05-03T03:49:20.481Z,60.80
2018-05-03T03:51:48.713Z,60.70
2018-05-03T03:54:17.714Z,60.50
2018-05-03T03:56:46.725Z,60.70
2018-05-03T03:59:14.962Z,60.70
2018-05-03T04:01:43.206Z,60.50
2018-05-03T04:04:11.530Z,60.50
2018-05-03T04:06:40.551Z,60.40
2018-05-03T04:09:08.785Z,60.30
2018-05-03T04:11:37.027Z,60.40
2018-05-03T04:14:05.378Z,60.80
2018-05-03T04:16:33.625Z,66.10
2018-05-03T04:22:29.734Z,70.40
2018-05-03T04:25:15.785Z,70.20
2018-05-03T04:27:44.045Z,69.30
2018-05-03T04:30:13.066Z,69.00
2018-05-03T04:32:41.305Z,68.90
2018-05-03T04:35:11.342Z,65.20
2018-05-03T04:37:39.570Z,65.90
2018-05-03T04:40:07.830Z,64.80
2018-05-03T04:42:36.057Z,65.00
2018-05-03T04:45:05.074Z,61.90
2018-05-03T04:47:33.309Z,61.80
2018-05-03T04:50:02.331Z,62.50
2018-05-03T04:52:30.589Z,62.90
2018-05-03T04:54:59.690Z,62.10
2018-05-03T04:57:28.691Z,61.90
2018-05-03T04:59:56.946Z,61.90
2018-05-03T05:02:25.975Z,62.30
2018-05-03T05:04:54.201Z,61.40
2018-05-03T05:07:22.431Z,61.60
2018-05-03T05:09:50.675Z,61.60
2018-05-03T05:12:19.674Z,61.30
2018-05-03T05:14:47.919Z,61.10
2018-05-03T05:17:16.152Z,60.50
2018-05-03T05:19:44.506Z,59.90
2018-05-03T05:22:13.302Z,60.80
2018-05-03T05:24:41.533Z,60.50
2018-05-03T05:27:09.767Z,60.60
2018-05-03T05:29:38.005Z,61.00
2018-05-03T05:32:07.028Z,60.60
2018-05-03T05:34:35.254Z,60.60
2018-05-03T05:37:03.500Z,60.60
2018-05-03T05:39:31.749Z,60.80
2018-05-03T05:41:59.989Z,60.20
2018-05-03T05:44:28.989Z,60.70
2018-05-03T05:46:58.005Z,60.20
2018-05-03T05:49:26.254Z,60.20
2018-05-03T05:51:55.261Z,60.50
2018-05-03T05:54:24.260Z,59.60
2018-05-03T05:56:53.276Z,59.60
2018-05-03T05:59:21.513Z,59.60
2018-05-03T06:01:50.513Z,59.80
2018-05-03T06:04:19.581Z,60.30
2018-05-03T06:06:47.765Z,60.30
2018-05-03T06:09:16.065Z,60.10
2018-05-03T06:11:45.083Z,59.50
2018-05-03T06:14:13.310Z,59.50
2018-05-03T06:16:41.602Z,58.90
2018-05-03T06:19:10.629Z,59.00
2018-05-03T06:21:38.870Z,59.00
2018-05-03T06:24:07.105Z,58.90
2018-05-03T06:26:35.338Z,58.80
2018-05-03T06:29:03.591Z,58.50
2018-05-03T06:31:32.601Z,58.50
2018-05-03T06:34:01.179Z,58.50
2018-05-03T06:36:30.206Z,59.40
2018-05-03T06:38:58.547Z,59.30
2018-05-03T06:41:26.696Z,58.70
2018-05-03T06:43:54.940Z,59.10
2018-05-03T06:46:23.186Z,59.40
2018-05-03T06:48:51.445Z,58.70
2018-05-03T06:51:20.441Z,58.30
2018-05-03T06:53:49.567Z,58.00
2018-05-03T06:56:17.798Z,57.90
2018-05-03T06:58:47.117Z,59.40
2018-05-03T07:01:16.135Z,59.30
2018-05-03T07:03:44.365Z,59.20
2018-05-03T07:06:12.659Z,58.30
2018-05-03T07:08:41.675Z,57.60
2018-05-03T07:11:09.914Z,57.60
2018-05-03T07:13:38.150Z,57.10
2018-05-03T07:16:06.389Z,57.30
2018-05-03T07:18:34.665Z,56.80
2018-05-03T07:21:02.912Z,56.50
2018-05-03T07:23:31.135Z,56.20
2018-05-03T07:25:59.381Z,55.00
2018-05-03T07:28:28.378Z,54.80
2018-05-03T07:30:56.630Z,54.70
2018-05-03T07:33:24.870Z,54.90
2018-05-03T07:35:53.194Z,54.90
2018-05-03T07:38:22.126Z,52.50
2018-05-03T07:40:50.364Z,52.50
2018-05-03T07:43:19.361Z,53.10
2018-05-03T07:45:48.658Z,52.80
2018-05-03T07:48:17.684Z,52.80
2018-05-03T07:50:45.909Z,52.80
2018-05-03T07:53:14.941Z,53.80
2018-05-03T07:55:43.179Z,53.70
2018-05-03T07:58:11.474Z,52.90
2018-05-03T08:00:39.653Z,53.50
2018-05-03T08:03:07.910Z,53.90
2018-05-03T08:05:36.913Z,53.80
2018-05-03T08:08:05.925Z,52.50
2018-05-03T08:10:34.161Z,52.50
2018-05-03T08:13:02.406Z,53.30
2018-05-03T08:15:30.746Z,52.00
2018-05-03T08:17:59.762Z,51.80
2018-05-03T08:20:28.004Z,51.80
2018-05-03T08:22:57.235Z,51.10
2018-05-03T08:25:25.450Z,51.10
2018-05-03T08:27:53.686Z,50.90
2018-05-03T08:30:21.932Z,50.30
2018-05-03T08:32:50.927Z,51.20
2018-05-03T08:35:19.955Z,51.00
2018-05-03T08:37:48.194Z,50.90
2018-05-03T08:40:17.193Z,49.60
2018-05-03T08:42:45.445Z,49.60
2018-05-03T08:45:13.677Z,49.90
2018-05-03T08:47:41.926Z,52.50
2018-05-03T08:50:10.365Z,50.00
2018-05-03T08:52:38.598Z,49.00
2018-05-03T08:55:06.830Z,49.50
2018-05-03T08:57:36.146Z,47.00
2018-05-03T09:00:05.141Z,47.00
2018-05-03T09:02:33.374Z,46.90
2018-05-03T09:05:01.627Z,46.00
2018-05-03T09:07:29.873Z,46.20
2018-05-03T09:09:58.858Z,46.40
2018-05-03T09:15:02.342Z,44.90
2018-05-03T09:17:30.950Z,45.00
2018-05-03T09:19:59.953Z,45.60
2018-05-03T09:22:28.283Z,45.60
2018-05-03T09:24:56.473Z,46.60
2018-05-03T09:27:24.714Z,47.70
2018-05-03T09:29:53.051Z,47.10
2018-05-03T09:32:22.050Z,48.40
2018-05-03T09:34:50.302Z,48.30
2018-05-03T09:37:19.309Z,47.50
2018-05-03T09:39:48.318Z,47.20
2018-05-03T09:42:16.553Z,47.20
2018-05-03T09:44:44.836Z,47.70
2018-05-03T09:47:13.035Z,48.20
2018-05-03T09:49:41.285Z,48.80
2018-05-03T09:52:11.026Z,49.90
2018-05-03T09:54:39.274Z,49.90
2018-05-03T09:57:07.519Z,50.40
2018-05-03T09:59:35.753Z,50.80
2018-05-03T10:02:04.326Z,51.00
2018-05-03T10:04:33.336Z,51.30
2018-05-03T10:07:01.582Z,51.20
2018-05-03T10:09:30.077Z,51.20
2018-05-03T10:11:59.077Z,52.20
2018-05-03T10:14:27.374Z,52.20
2018-05-03T10:16:55.622Z,50.00
2018-05-03T10:19:24.626Z,49.90
2018-05-03T10:21:52.870Z,49.90
2018-05-03T10:24:21.166Z,49.70
2018-05-03T10:26:49.401Z,46.70
2018-05-03T10:29:17.649Z,47.60
2018-05-03T10:31:45.904Z,46.90
2018-05-03T10:34:14.133Z,47.30
2018-05-03T10:36:42.421Z,46.00
2018-05-03T10:39:10.653Z,47.10
2018-05-03T10:41:38.890Z,47.70
2018-05-03T10:44:07.915Z,46.70
2018-05-03T10:46:36.145Z,46.60
2018-05-03T10:49:04.473Z,45.80
2018-05-03T10:51:32.632Z,45.90
2018-05-03T10:54:00.874Z,46.20
2018-05-03T10:56:29.902Z,43.20
2018-05-03T10:58:58.899Z,43.50
2018-05-03T11:01:27.145Z,43.40
2018-05-03T11:03:56.170Z,44.30
2018-05-03T11:06:24.406Z,44.20
2018-05-03T11:08:53.405Z,46.80
2018-05-03T11:11:22.413Z,46.40
2018-05-03T11:13:50.669Z,45.70
2018-05-03T11:16:19.685Z,47.50
2018-05-03T11:18:47.927Z,47.50
2018-05-03T11:21:16.192Z,47.90
2018-05-03T11:23:44.417Z,48.60
2018-05-03T11:26:12.644Z,48.10
2018-05-03T11:28:40.890Z,47.40
2018-05-03T11:31:09.125Z,47.30
2018-05-03T11:33:38.142Z,45.30
2018-05-03T11:36:06.380Z,45.30
2018-05-03T11:38:35.378Z,46.60
2018-05-03T11:41:04.493Z,45.50
2018-05-03T11:43:34.513Z,46.10
2018-05-03T11:46:02.754Z,46.00
2018-05-03T11:48:31.749Z,47.10
2018-05-03T11:51:00.041Z,47.00
2018-05-03T11:53:29.045Z,47.40
2018-05-03T11:55:57.314Z,47.40
2018-05-03T11:58:26.321Z,46.50
2018-05-03T12:00:54.576Z,46.50
2018-05-03T12:03:23.568Z,47.30
2018-05-03T12:05:52.590Z,47.00
2018-05-03T12:08:20.844Z,47.00
2018-05-03T12:10:49.053Z,47.10
2018-05-03T12:13:17.297Z,47.30
2018-05-03T12:15:45.547Z,47.80
2018-05-03T12:18:13.794Z,46.90
2018-05-03T12:20:43.046Z,47.00
2018-05-03T12:23:12.052Z,46.70
2018-05-03T12:25:40.285Z,46.70
2018-05-03T12:28:08.541Z,47.00
2018-05-03T12:30:36.866Z,47.70
2018-05-03T12:33:05.873Z,48.50
2018-05-03T12:35:34.132Z,48.40
2018-05-03T12:38:03.148Z,49.20
2018-05-03T12:40:31.403Z,49.10
2018-05-03T12:43:00.414Z,49.60
2018-05-03T12:45:28.653Z,49.50
2018-05-03T12:47:56.896Z,50.20
2018-05-03T12:50:25.144Z,50.50
2018-05-03T12:52:53.385Z,49.50
2018-05-03T12:55:22.389Z,50.80
2018-05-03T12:57:51.405Z,50.40
2018-05-03T13:00:19.654Z,50.40
2018-05-03T13:02:48.666Z,50.30
2018-05-03T13:05:16.905Z,50.30
2018-05-03T13:07:45.135Z,50.70
2018-05-03T13:10:13.482Z,51.10
2018-05-03T13:12:42.501Z,51.80
2018-05-03T13:15:10.742Z,51.70
2018-05-03T13:17:39.764Z,51.50
2018-05-03T13:20:07.995Z,51.50
2018-05-03T13:22:36.242Z,51.80
2018-05-03T13:25:04.470Z,51.70
2018-05-03T13:27:33.483Z,52.60
2018-05-03T13:30:01.723Z,52.60
2018-05-03T13:32:30.731Z,53.50
2018-05-03T13:34:59.742Z,52.60
2018-05-03T13:37:27.969Z,52.60
2018-05-03T13:39:56.217Z,52.10
2018-05-03T13:42:24.461Z,52.40
2018-05-03T13:44:52.710Z,52.50
2018-05-03T13:47:21.731Z,52.80
2018-05-03T13:49:50.017Z,52.70
2018-05-03T13:52:18.267Z,52.60
2018-05-03T13:54:47.291Z,52.70
2018-05-03T13:57:15.529Z,52.70
2018-05-03T13:59:44.546Z,53.10
2018-05-03T14:02:12.777Z,53.00
2018-05-03T14:04:41.010Z,52.40
2018-05-03T14:07:09.293Z,52.00
2018-05-03T14:09:38.657Z,52.20
2018-05-03T14:12:07.654Z,52.50
2018-05-03T14:14:36.658Z,52.40
2018-05-03T14:17:04.909Z,52.50
2018-05-03T14:19:33.910Z,53.10
2018-05-03T14:22:03.013Z,52.80
2018-05-03T14:24:32.057Z,53.10
2018-05-03T14:27:00.310Z,53.10
2018-05-03T14:29:28.551Z,53.70
2018-05-03T14:31:57.565Z,53.80
2018-05-03T14:34:25.806Z,53.70
2018-05-03T14:36:54.055Z,53.60
2018-05-03T14:39:22.297Z,53.70
2018-05-03T14:41:50.574Z,53.80
2018-05-03T14:44:18.828Z,54.60
2018-05-03T14:46:47.844Z,54.00
2018-05-03T14:49:16.126Z,53.90
2018-05-03T14:51:44.401Z,53.50
2018-05-03T14:54:12.634Z,53.70
2018-05-03T14:56:41.657Z,54.20
2018-05-03T14:59:09.885Z,54.20
2018-05-03T15:01:38.141Z,55.10
2018-05-03T15:04:06.373Z,55.70
2018-05-03T15:06:34.695Z,55.90
2018-05-03T15:09:02.918Z,56.40
2018-05-03T15:11:31.975Z,56.70
2018-05-03T15:14:00.216Z,56.70
2018-05-03T15:16:28.480Z,56.90
2018-05-03T15:18:57.470Z,58.20
2018-05-03T15:21:25.714Z,58.20
2018-05-03T15:23:53.965Z,58.10
2018-05-03T15:26:22.351Z,57.90
2018-05-03T15:28:50.588Z,57.70
2018-05-03T15:31:18.826Z,58.30
2018-05-03T15:33:48.072Z,58.80
2018-05-03T15:36:16.292Z,58.80
2018-05-03T15:38:44.522Z,58.80
2018-05-03T15:41:12.778Z,59.50
2018-05-03T15:43:41.190Z,59.60
2018-05-03T15:46:09.390Z,60.10
2018-05-03T15:48:37.631Z,60.40
2018-05-03T15:51:05.881Z,60.50
2018-05-03T15:53:34.133Z,60.90
2018-05-03T15:56:03.157Z,61.00
2018-05-03T15:58:31.401Z,60.80
2018-05-03T16:01:00.417Z,61.50
2018-05-03T16:03:28.665Z,61.50
2018-05-03T16:05:57.978Z,61.30
2018-05-03T16:08:26.986Z,61.40
2018-05-03T16:10:55.226Z,62.20
2018-05-03T16:13:23.473Z,60.90
2018-05-03T16:15:51.726Z,61.20
2018-05-03T16:18:20.002Z,62.00
2018-05-03T16:20:48.233Z,61.20
2018-05-03T16:23:16.486Z,61.60
2018-05-03T16:25:45.118Z,62.00
2018-05-03T16:28:13.363Z,62.50
2018-05-03T16:30:41.602Z,62.40
2018-05-03T16:33:09.876Z,62.40
2018-05-03T16:35:38.117Z,62.50
2018-05-03T16:38:06.357Z,62.40
2018-05-03T16:40:34.610Z,62.40
2018-05-03T16:43:02.853Z,62.30
2018-05-03T16:45:31.144Z,62.70
2018-05-03T16:48:00.167Z,62.60
2018-05-03T16:50:28.389Z,62.60
2018-05-03T16:52:56.641Z,62.80
2018-05-03T16:55:25.647Z,63.00
2018-05-03T16:57:54.673Z,63.20
2018-05-03T17:00:22.926Z,63.20
2018-05-03T17:02:51.934Z,63.70
2018-05-03T17:05:20.181Z,63.60
2018-05-03T17:07:49.205Z,63.30
2018-05-03T17:10:17.454Z,63.30
2018-05-03T17:12:46.489Z,62.90
2018-05-03T17:15:14.730Z,62.80
2018-05-03T17:17:43.735Z,63.10
2018-05-03T17:20:12.331Z,63.10
2018-05-03T17:22:40.552Z,62.50
2018-05-03T17:25:08.791Z,62.30
2018-05-03T17:27:37.142Z,62.30
2018-05-03T17:30:05.399Z,62.10
2018-05-03T17:32:34.435Z,62.30
2018-05-03T17:35:02.670Z,62.30
2018-05-03T17:37:31.673Z,63.10
2018-05-03T17:39:59.929Z,63.10
2018-05-03T17:42:28.174Z,63.10
2018-05-03T17:44:56.413Z,63.00
2018-05-03T17:47:24.658Z,63.20
2018-05-03T17:49:53.665Z,63.30
2018-05-03T17:52:22.685Z,63.60
2018-05-03T17:54:50.933Z,63.50
2018-05-03T17:57:19.937Z,63.80
2018-05-03T17:59:48.205Z,63.90
2018-05-03T18:02:16.454Z,64.00
2018-05-03T18:04:45.028Z,63.80
2018-05-03T18:07:13.206Z,64.10
2018-05-03T18:09:41.443Z,64.30
2018-05-03T18:12:09.790Z,64.10
2018-05-03T18:14:38.034Z,64.10
2018-05-03T18:17:06.549Z,63.80
2018-05-03T18:19:34.934Z,63.30
2018-05-03T18:22:03.174Z,62.90
2018-05-03T18:24:32.435Z,62.20
2018-05-03T18:27:00.782Z,62.80
2018-05-03T18:29:29.026Z,62.90
2018-05-03T18:31:57.278Z,62.90
2018-05-03T18:34:25.530Z,63.00
2018-05-03T18:36:53.806Z,63.20
2018-05-03T18:39:22.034Z,63.40
2018-05-03T18:41:51.041Z,63.40
2018-05-03T18:44:20.086Z,63.40
2018-05-03T18:46:48.413Z,63.40
2018-05-03T18:49:17.461Z,63.10
2018-05-03T18:51:45.691Z,63.00
2018-05-03T18:54:14.738Z,63.20
2018-05-03T18:56:43.003Z,63.20
2018-05-03T18:59:11.247Z,62.60
2018-05-03T19:01:39.522Z,62.60
2018-05-03T19:04:07.818Z,62.90
2018-05-03T19:06:36.082Z,62.60
2018-05-03T19:09:04.321Z,62.90
2018-05-03T19:11:33.560Z,63.30
2018-05-03T19:14:01.794Z,63.30
2018-05-03T19:16:30.045Z,63.50
2018-05-03T19:18:58.289Z,64.40
2018-05-03T19:21:26.564Z,64.00
2018-05-03T19:23:54.813Z,64.00
2018-05-03T19:26:23.062Z,64.10
2018-05-03T19:28:51.310Z,64.20
2018-05-03T19:31:19.555Z,63.70
2018-05-03T19:33:47.814Z,63.50
2018-05-03T19:36:16.837Z,62.90
2018-05-03T19:38:45.082Z,62.90
2018-05-03T19:41:14.087Z,62.80
2018-05-03T19:43:42.333Z,62.70
2018-05-03T19:46:11.349Z,62.40
2018-05-03T19:48:39.597Z,62.40
2018-05-03T19:51:08.642Z,63.50
2018-05-03T19:53:36.885Z,62.50
2018-05-03T19:56:05.892Z,62.40
2018-05-03T19:58:34.151Z,62.30
2018-05-03T20:01:03.258Z,63.00
2018-05-03T20:03:32.264Z,63.20
2018-05-03T20:06:00.510Z,63.20
2018-05-03T20:08:29.530Z,63.40
2018-05-03T20:10:57.774Z,64.20
2018-05-03T20:13:26.786Z,63.80
2018-05-03T20:15:55.815Z,63.60
2018-05-03T20:18:24.061Z,63.50
2018-05-03T20:20:52.339Z,63.80
2018-05-03T20:23:20.590Z,64.00
2018-05-03T20:25:49.602Z,64.70
2018-05-03T20:28:17.877Z,63.90
2018-05-03T20:30:46.240Z,64.40
2018-05-03T20:33:15.925Z,64.70
2018-05-03T20:35:44.168Z,64.50
2018-05-03T20:38:12.413Z,64.90
2018-05-03T20:40:41.495Z,64.80
2018-05-03T20:43:10.531Z,64.80
2018-05-03T20:45:38.790Z,64.70
2018-05-03T20:48:07.030Z,65.30
2018-05-03T20:50:35.294Z,65.20
2018-05-03T20:53:03.533Z,65.60
2018-05-03T20:55:31.782Z,65.70
2018-05-03T20:58:00.033Z,65.50
2018-05-03T21:00:29.793Z,66.00
2018-05-03T21:02:58.038Z,66.00
2018-05-03T21:05:27.081Z,65.70
2018-05-03T21:07:56.079Z,65.90
2018-05-03T21:10:24.317Z,65.80
2018-05-03T21:12:52.573Z,66.10
2018-05-03T21:15:21.599Z,66.10
2018-05-03T21:17:49.850Z,66.10
2018-05-03T21:20:18.153Z,66.30
2018-05-03T21:22:46.394Z,66.60
2018-05-03T21:25:15.405Z,66.90
2018-05-03T21:27:43.641Z,66.90
2018-05-03T21:30:11.950Z,67.20
2018-05-03T21:32:40.201Z,67.40
2018-05-03T21:35:08.462Z,67.40
2018-05-03T21:37:36.705Z,68.30
2018-05-03T21:40:04.945Z,67.20
2018-05-03T21:42:33.970Z,67.20
2018-05-03T21:45:02.243Z,67.20
2018-05-03T21:47:30.482Z,67.20
2018-05-03T21:49:59.486Z,67.20
2018-05-03T21:52:27.788Z,67.10
2018-05-03T21:54:56.758Z,67.80
2018-05-03T21:57:25.016Z,67.80
2018-05-03T21:59:54.030Z,68.40
2018-05-03T22:02:22.282Z,68.30
2018-05-03T22:04:50.540Z,68.40
2018-05-03T22:07:18.779Z,68.80
2018-05-03T22:09:47.030Z,68.80
2018-05-03T22:12:15.292Z,69.10
2018-05-03T22:14:44.296Z,69.60
2018-05-03T22:17:13.328Z,69.30
2018-05-03T22:19:41.561Z,69.20
2018-05-03T22:22:10.574Z,69.50
2018-05-03T22:24:38.826Z,69.50
2018-05-03T22:27:07.834Z,69.40
2018-05-03T22:29:36.095Z,69.40
2018-05-03T22:32:05.118Z,69.30
2018-05-03T22:34:33.357Z,69.20
2018-05-03T22:37:02.369Z,69.60
2018-05-03T22:39:30.623Z,69.00
2018-05-03T22:41:59.631Z,68.90
2018-05-03T22:44:28.654Z,69.80
2018-05-03T22:46:56.890Z,69.70
2018-05-03T22:49:26.185Z,70.00
2018-05-03T22:51:54.428Z,70.00
2018-05-03T22:54:22.657Z,69.40
2018-05-03T22:56:50.918Z,69.70
2018-05-03T22:59:19.918Z,69.10
2018-05-03T23:01:48.941Z,69.00
2018-05-03T23:04:17.173Z,69.00
2018-05-03T23:06:46.193Z,69.50
2018-05-03T23:09:14.436Z,68.70
2018-05-03T23:11:42.693Z,68.70
2018-05-03T23:14:10.937Z,68.90
2018-05-03T23:16:39.177Z,69.40
2018-05-03T23:19:08.437Z,69.40
2018-05-03T23:21:36.680Z,69.20
2018-05-03T23:24:04.913Z,69.00
2018-05-03T23:26:33.166Z,69.10
2018-05-03T23:29:01.414Z,68.80
2018-05-03T23:31:29.669Z,68.40
2018-05-03T23:33:57.910Z,68.90
2018-05-03T23:36:26.151Z,69.00
2018-05-03T23:38:54.398Z,69.00
2018-05-03T23:41:22.633Z,68.80
2018-05-03T23:43:50.883Z,68.60
2018-05-03T23:46:19.134Z,68.60
2018-05-03T23:48:47.374Z,68.20
2018-05-03T23:51:16.386Z,69.30
2018-05-03T23:53:44.621Z,68.40
2018-05-03T23:56:12.878Z,68.40
2018-05-03T23:58:41.131Z,68.40
